Station: Gove Airport  

  Atmospheric Gas Attenuation - ITU Rec 676-11   ----------------- dB/100km -----------------
Date Time Temp RH % AH g/m3 Dew Point Wind Direction Speed kph Gust kph Barometer mB Rainfall Since 9am 24GHz 47GHz 76GHz 122GHz 134GHz 241GHz
02/09 17:30 25.4 75 17.66 20.6 17 24 1015.4 0 38.1 37.5 70.7 187.0 203.6 707.3
02/09 17:20 25.6 73 17.38 20.4 19 24 1015.3 0 37.5 36.9 69.3 183.1 199.0 691.0
02/09 17:10 25.8 72 17.33 20.4 17 22 1015.2 0 37.3 36.7 68.8 182.0 197.7 686.6
02/09 17:00 25.9 72 17.43 20.5 20 28 1015.3 0 37.5 36.8 69.2 183.0 198.9 690.8
02/09 16:50 26.1 71 17.38 20.4 20 30 1015.2 0 37.4 36.6 68.8 181.9 197.6 686.4
02/09 16:40 26.3 72 17.82 20.8 20 28 1015.2 0 38.3 37.3 70.6 186.7 203.6 707.1
02/09 16:30 26.5 73 18.27 21.3 17 24 1015.1 0 39.2 38.1 72.4 191.6 209.6 728.3
02/09 16:20 26.1 74 18.12 21.1 17 26 1015.1 0 39.0 38.0 72.1 190.8 208.5 724.4
02/09 16:10 25.7 77 18.43 21.4 17 20 1015.2 0 39.7 38.7 73.9 195.6 214.3 744.4
02/09 16:00 25.5 76 17.99 21 15 20 1015.1 0 38.8 38.0 72.1 190.7 208.3 723.3
02/09 15:50 24.9 81 18.54 21.4 17 24 1015.1 0 40.0 39.3 75.2 199.0 218.3 758.1
02/09 15:40 24.7 82 18.56 21.4 19 22 1015.3 0 40.0 39.4 75.5 199.8 219.2 761.3
02/09 15:30 24.3 82 18.15 21 20 30 1015.4 0 39.2 38.9 74.0 195.7 214.1 743.5
02/09 15:20 24.3 81 17.92 20.8 22 28 1015.4 0 38.7 38.4 72.9 192.9 210.6 731.3
02/09 15:10 24.9 76 17.4 20.4 22 32 1015.4 0 37.6 37.2 70.0 185.0 201.1 698.4
02/09 15:00 25.8 75 18.06 21 24 32 1015.4 0 38.9 38.0 72.2 190.8 208.5 724.2
02/09 14:50 24.9 81 18.54 21.4 20 28 1015.4 0 40.0 39.3 75.3 199.0 218.3 758.3
02/09 14:40 25.5 76 17.99 21 20 32 1015.6 0 38.7 38.0 72.1 190.8 208.3 723.6
02/09 14:30 25.3 75 17.56 20.5 24 35 1015.7 0 37.9 37.3 70.4 186.0 202.5 703.2
02/09 14:20 25.6 73 17.38 20.4 26 37 1015.8 0 37.4 36.9 69.3 183.2 199.0 691.2
02/09 14:10 26.3 68 16.83 19.9 26 37 1015.8 0 36.2 35.6 66.2 175.0 189.3 657.3
02/09 14:00 27.8 67 18.02 21.1 22 28 1015.8 0 38.6 37.1 70.2 185.5 202.5 703.7
02/09 13:50 27.3 67 17.53 20.6 24 32 1015.9 0 37.6 36.4 68.4 180.9 196.8 683.6
02/09 13:40 26.8 69 17.56 20.6 20 24 1016.1 0 37.7 36.7 69.0 182.5 198.6 689.7
02/09 13:30 26.6 69 17.37 20.4 22 32 1016.2 0 37.3 36.4 68.4 180.7 196.3 682.0
02/09 13:20 27.1 68 17.6 20.7 17 19 1016.3 0 37.8 36.6 69.0 182.3 198.4 689.1
02/09 13:10 26.5 71 17.77 20.8 22 32 1016.5 0 38.2 37.2 70.3 185.8 202.5 703.3
02/09 13:00 26.5 70 17.52 20.6 22 30 1016.6 0 37.7 36.8 69.2 182.8 198.8 690.6
02/09 12:50 27.1 66 17.08 20.2 20 26 1016.7 0 36.7 35.7 66.7 176.3 191.0 663.3
02/09 12:40 27.6 61 16.23 19.4 22 28 1016.7 0 34.8 34.1 62.6 165.4 177.8 617.5
02/09 12:30 27.8 62 16.68 19.8 22 30 1016.8 0 35.8 34.8 64.4 170.1 183.6 637.7
02/09 12:20 28.1 62 16.95 20.1 24 30 1016.9 0 36.3 35.1 65.3 172.5 186.7 648.5
02/09 12:10 28 62 16.86 20 20 28 1017.1 0 36.1 35.0 65.0 171.8 185.7 645.0
02/09 12:00 27.5 62 16.4 19.6 22 32 1017.3 0 35.2 34.4 63.4 167.6 180.5 626.8
02/09 11:50 27.8 61 16.41 19.6 19 26 1017.5 0 35.2 34.3 63.3 167.1 179.9 624.9
02/09 11:40 27.9 60 16.23 19.4 20 32 1017.6 0 34.8 34.0 62.4 164.9 177.2 615.5
02/09 11:30 27.6 63 16.76 19.9 20 32 1017.6 0 35.9 35.0 64.9 171.6 185.3 643.7
02/09 11:20 27.5 63 16.67 19.8 20 30 1017.8 0 35.8 34.9 64.6 170.8 184.3 640.2
02/09 11:10 27.4 63 16.58 19.7 20 28 1017.8 0 35.6 34.8 64.3 170.0 183.3 636.6
02/09 11:00 27.1 64 16.56 19.7 22 32 1018.1 0 35.6 34.9 64.5 170.4 183.8 638.2
02/09 10:50 27.7 61 16.32 19.5 20 28 1018.1 0 35.0 34.2 63.0 166.4 179.0 621.7
02/09 10:40 27.3 64 16.75 19.9 19 28 1018.3 0 35.9 35.1 65.2 172.2 186.0 646.0
02/09 10:30 27.7 61 16.32 19.5 20 28 1018.4 0 35.0 34.2 63.0 166.5 179.0 621.8
02/09 10:20 27.5 61 16.14 19.3 20 28 1018.5 0 34.6 34.0 62.4 164.9 177.0 614.7
02/09 10:10 28 62 16.86 20 20 30 1018.6 0 36.1 35.1 65.1 172.0 185.9 645.7
02/09 10:00 26.9 63 16.12 19.3 19 28 1018.6 0 34.7 34.2 62.8 165.9 178.1 618.6
02/09 09:50 27.3 64 16.75 19.9 20 30 1018.7 0 35.9 35.2 65.2 172.3 186.0 646.2
02/09 09:40 27.2 62 16.13 19.3 19 24 1018.7 0 34.7 34.1 62.6 165.4 177.6 616.7
02/09 09:30 27.7 65 17.39 20.5 13 17 1018.7 0 37.3 36.1 67.6 178.8 194.1 674.5
02/09 09:20 27.4 63 16.58 19.7 19 26 1018.7 0 35.6 34.8 64.4 170.1 183.4 637.0
02/09 09:10 26.2 67 16.49 19.6 17 24 1018.7 0 35.5 35.2 65.0 171.7 185.0 642.5
02/09 09:00 27 66 16.99 20.1 19 28 1018.6 0 36.5 35.7 66.5 175.7 190.2 660.6
02/09 08:50 26.9 66 16.89 20 19 28 1018.5 0.4 36.3 35.6 66.1 174.8 189.0 656.4
02/09 08:40 26.5 67 16.77 19.9 20 26 1018.5 0.4 36.1 35.5 66.0 174.3 188.3 653.8
02/09 08:30 25.8 69 16.61 19.7 15 24 1018.4 0.4 35.8 35.5 65.8 174.0 187.7 651.7
02/09 08:20 25 72 16.57 19.6 15 20 1018.5 0.4 35.8 35.8 66.4 175.3 189.1 656.6
02/09 08:10 25.4 71 16.71 19.8 13 17 1018.3 0.4 36.0 35.9 66.6 176.0 190.1 660.1
02/09 08:00 25.4 73 17.19 20.2 11 17 1018.2 0.4 37.1 36.7 68.8 181.7 197.1 684.5
02/09 07:50 24.5 76 17.01 20 9 13 1018.2 0.4 36.8 36.8 68.8 181.7 196.8 683.3
02/09 07:40 23.7 80 17.11 20 9 13 1018.1 0.4 37.0 37.3 69.9 184.8 200.4 695.7
02/09 07:30 22.9 83 16.96 19.9 9 11 1018 0.4 36.8 37.4 70.0 184.9 200.2 695.1
02/09 07:20 21.8 88 16.88 19.7 6 7 1017.9 0.4 36.7 37.7 70.6 186.6 202.0 700.9
02/09 07:10 20.6 95 17 19.8 2 9 1017.8 0.4 37.1 38.5 72.3 191.1 207.1 718.6
02/09 07:00 20.2 95 16.61 19.4 0 0 1017.6 0.4 36.3 37.9 70.8 187.1 202.1 701.1
02/09 06:50 19.3 94 15.59 18.3 0 0 1017.4 0.4 34.2 36.4 66.8 176.4 188.6 654.1
02/09 06:40 19.4 94 15.68 18.4 0 0 1017.3 0.4 34.4 36.5 67.1 177.2 189.7 658.0
02/09 06:30 19.5 94 15.77 18.5 4 6 1017.2 0.4 34.6 36.6 67.4 178.1 190.9 661.9
02/09 06:20 19.5 94 15.77 18.5 6 6 1017.1 0.4 34.6 36.6 67.4 178.1 190.8 661.9
02/09 06:10 19.3 93 15.42 18.1 6 7 1017 0.4 33.8 36.0 66.0 174.2 186.0 644.9
02/09 06:00 19.3 94 15.59 18.3 6 7 1016.9 0.4 34.2 36.3 66.8 176.3 188.6 653.9
02/09 05:50 19.4 94 15.68 18.4 7 9 1016.8 0.4 34.4 36.5 67.1 177.2 189.7 657.8
02/09 05:40 19.3 94 15.59 18.3 2 7 1016.7 0.4 34.2 36.3 66.7 176.3 188.5 653.8
02/09 05:30 19.4 94 15.68 18.4 0 0 1016.5 0.4 34.4 36.5 67.1 177.1 189.6 657.6
02/09 05:20 19.4 94 15.68 18.4 0 0 1016.5 0.4 34.4 36.5 67.1 177.1 189.6 657.6
02/09 05:10 19.2 94 15.5 18.2 0 0 1016.4 0.4 34.0 36.2 66.4 175.3 187.4 649.7
02/09 05:00 19.3 94 15.59 18.3 0 0 1016.3 0.4 34.2 36.3 66.7 176.2 188.5 653.6
02/09 04:50 19.5 94 15.77 18.5 0 0 1016.2 0.4 34.6 36.6 67.4 178.0 190.7 661.4
02/09 04:40 19.5 94 15.77 18.5 0 0 1016.2 0.4 34.6 36.6 67.4 178.0 190.7 661.4
02/09 04:30 19.6 94 15.87 18.6 0 0 1016.1 0.4 34.8 36.7 67.8 179.0 192.0 665.9
02/09 04:20 19.5 94 15.77 18.5 2 6 1016.1 0.4 34.6 36.6 67.4 178.0 190.7 661.4
02/09 04:10 19.5 94 15.77 18.5 0 0 1016.1 0.4 34.6 36.6 67.4 178.0 190.7 661.4
02/09 04:00 19.7 95 16.13 18.9 0 0 1016.1 0.4 35.3 37.2 68.9 182.0 195.7 679.0
02/09 03:50 19.4 94 15.68 18.4 0 0 1016 0.4 34.4 36.4 67.0 177.1 189.6 657.4
02/09 03:40 19.2 94 15.5 18.2 0 6 1016.1 0.4 34.0 36.2 66.4 175.3 187.3 649.6
02/09 03:30 19.3 94 15.59 18.3 0 0 1016 0.4 34.2 36.3 66.7 176.2 188.4 653.5
02/09 03:20 19.3 94 15.59 18.3 0 0 1015.9 0.4 34.2 36.3 66.7 176.2 188.4 653.4
02/09 03:10 19.3 93 15.42 18.1 0 0 1015.8 0.4 33.8 36.0 65.9 174.0 185.8 644.3
02/09 03:00 19.4 93 15.52 18.2 0 0 1015.9 0.4 34.0 36.1 66.3 175.0 187.1 648.8
02/09 02:50 19.5 93 15.61 18.3 0 0 1015.9 0.4 34.2 36.3 66.6 175.9 188.2 652.8
02/09 02:40 19.7 93 15.79 18.5 0 0 1016 0.4 34.6 36.5 67.3 177.7 190.5 660.7
02/09 02:30 19.8 93 15.88 18.6 0 0 1016 0.4 34.8 36.6 67.6 178.6 191.6 664.6
02/09 02:20 20 93 16.07 18.8 0 0 1016.1 0.4 35.2 36.9 68.3 180.5 194.0 673.0
02/09 02:10 20 93 16.07 18.8 0 0 1016.2 0.4 35.2 36.9 68.3 180.5 194.0 673.1
02/09 02:00 20.1 93 16.16 18.9 0 0 1016.3 0.4 35.4 37.0 68.7 181.5 195.2 677.1
02/09 01:50 20.1 94 16.34 19.1 0 0 1016.4 0.4 35.7 37.4 69.5 183.7 198.0 686.8
02/09 01:40 19.9 93 15.98 18.7 0 0 1016.5 0.4 35.0 36.8 68.0 179.7 193.0 669.3
02/09 01:30 20 93 16.07 18.8 0 0 1016.6 0.4 35.2 36.9 68.4 180.6 194.1 673.3
02/09 01:20 20.1 93 16.16 18.9 0 0 1016.6 0.4 35.4 37.1 68.7 181.5 195.2 677.2
02/09 01:10 20 93 16.07 18.8 0 0 1016.6 0.4 35.2 36.9 68.4 180.6 194.1 673.3
02/09 01:00 20 92 15.9 18.7 0 4 1016.6 0.4 34.8 36.6 67.6 178.5 191.5 664.2

Last Refresh: 02-Sep-2026 17:32:25

Bureau of Meteorology